Blairstown, Iowa
Current Conditions -  °F | °C
As of 8:52 AM on Wednesday 26 Nov 2014 (Local Time) from KCID Reporting Station
Haze Haze  
Wind Chill: 15°   Ceiling: 6000
Heat Index: 25°   Visibility: 6mi
Dew Point: 22°   Wind: 10mph
Humidity: 88%   Direction: 90°E
Pressure: 30"   Gusts: NA
Location:  41.91°N, 92.08°W
Report Text: KCID 261452Z 09009KT 6SM BR OVC060 M04/M06 A3000 RMK AO2 SLP173 T10391056 55003
Loading
Personal Weather Stations






























Interactive Weather Map New forecast layout! Learn more

10-Day Weather Forecast

Advertisements
Track Severe Weather on mobile